Kenosha, WI (53141)

10:41 AM CDT on August 30, 2014 (GMT -0500)
47th Ave & 30th Street | Change Station
CLOSE
Current Station
Personal Weather Station
Location: Kenosha, WI
Elevation: 697 ft
Nearby Weather Stations

Elev 697 ft 42.61 °N, 87.87 °W | Updated 4 seconds ago

Mostly Cloudy
Mostly Cloudy
78.2 °F
Feels Like 81 °F
N
4.2
Wind Variable Wind from South
Gusts 6.8 mph

Today
High -- | Low -- °F
--% Chance of Precip.
Yesterday
High -- | Low -- °F
Precip. -- in
6:14 AM 7:28 PM
Waxing Crescent, 22% visible
Pressure 29.81 in
Visibility 10.0 miles
Clouds Scattered Clouds 2200 ft
Mostly Cloudy 2600 ft
Heat Index 81 °F
Dew Point 71 °F
Humidity 78%
Rainfall 0.00 in
Snow Depth Not available.
UV 3.0 out of 12
Pollen 2.90 out of 12
PM2.5 Good
Flu Activity Not available.
METAR KENW 301453Z 23008G21KT 10SM SCT022 BKN026 25/21 A2982 RMK AO2 SLP093 T02500206 58001

More Conditions Fewer Conditions

Pressure 29.81 in
Visibility 10.0 miles
Clouds Scattered Clouds 2200 ft
Mostly Cloudy 2600 ft
Heat Index 81 °F
Dew Point 71 °F
Humidity 78%
Rainfall 0.00 in
Snow Depth Not available.
UV 3.0 out of 12
Pollen 2.90 out of 12
PM2.5 Good
Flu Activity Not available.
METAR KENW 301453Z 23008G21KT 10SM SCT022 BKN026 25/21 A2982 RMK AO2 SLP093 T02500206 58001

More Conditions Fewer Conditions

10-Day Weather Forecast

Almanac

Astronomy

Aug. 30, 2014 Rise Set
Actual Time 6:14 AM CDT 7:28 PM CDT
Civil Twilight 5:44 AM CDT 7:57 PM CDT
Nautical Twilight 5:09 AM CDT 8:32 PM CDT
Astronomical Twilight 4:33 AM CDT 9:09 PM CDT
Moon 11:08 AM CDT 9:55 PM CDT
Length of Visible Light 14h 13m
Length of Day
13h 14m
Tomorrow will be 2m 46s shorter.
Waxing Crescent, 22% of the Moon is Illuminated
Today
Waxing Crescent
Sep 2
First Quarter
Sep 8
Full
Sep 15
Last Quarter
Sep 24
New

Today's Extremes

State Highs State Lows

Community

WunderPhotos

Upload Photos

1,748,550 photos uploaded!

WunderBlogs® & News

Nearby

Air Quality

  Air Quality AQ Index Pollutant
Yesterday Good
OZONE
Yesterday Good
PM2.5
Current Good
PM2.5
Saturday Good
OZONE
Saturday Good
PM2.5
Sunday Moderate
OZONE
Sunday Moderate
PM2.5
Monday Good
OZONE
Monday Good
PM2.5
Tuesday Good
OZONE
Tuesday Good
PM2.5

Snow Depth

Station Depth Elevation
No new snow has been reported.

Earthquake Activity

City Distance Mag. Time & Date
No recent earthquake activity has been reported nearby.
Minimum magnitude displayed is 2.5.

Coastal Water Temperatures

Place Temperature
No Stations Reporting

Nearby Weather Stations